Terminal Aerodrome Forecast
Issued by NWS

Home | Current Version | Previous Version | Graphics & Text | Print | Product List | Glossary On
Versions: 1 2 3 4 5 6 7 8 9 10 11 12 13 14 15 16 17 18
000
FTUS43 KGRB 252325
TAFRHI
TAF
KRHI 252325Z 2600/2624 08009KT 6SM BR BKN008 OVC035
      TEMPO 2600/2603 4SM -SHRA SCT008 OVC015
     FM260300 06010KT P6SM BKN006 OVC010
     FM260600 05009KT P6SM BKN004 OVC008
     FM261500 07007KT P6SM BKN008 OVC014
     FM261700 06008KT P6SM BKN012 OVC025
     FM262000 06008KT P6SM BKN020 OVC030=

USA.gov is the U.S. government's official web portal to all federal, state and local government web resources and services.